Time;durP1;ratioP1;P1;durP2;ratioP2;P2;SDS_P1;SDS_P2;PMS_P1;PMS_P2;Temp;Humidity;BMP_temperature;BMP_pressure;BME280_temperature;BME280_humidity;BME280_pressure;Samples;Min_cycle;Max_cycle;Signal;HPM_P1;HPM_P2
2019/09/12 00:02:18;;;;;;;7.5;4.6;;;;;;;15.77;81.74609;949.5862;;;;
2019/09/12 00:04:48;;;;;;;9.1;4.1;;;;;;;15.71;81.80371;949.6075;;;;
2019/09/12 00:07:13;;;;;;;8.7;4.3;;;;;;;15.7;81.75586;949.6435;;;;
2019/09/12 00:09:43;;;;;;;6.7;4.2;;;;;;;15.72;81.70313;949.663;;;;
2019/09/12 00:12:15;;;;;;;7.6;4.7;;;;;;;15.55;82.49121;949.6047;;;;
2019/09/12 00:14:44;;;;;;;6.1;4.4;;;;;;;15.45;83.00195;949.6512;;;;
2019/09/12 00:17:11;;;;;;;7.7;5.2;;;;;;;15.49;82.80371;949.6797;;;;
2019/09/12 00:19:43;;;;;;;7.4;4.9;;;;;;;15.55;82.39844;949.6537;;;;
2019/09/12 00:22:08;;;;;;;9.7;5.3;;;;;;;15.57;82.34375;949.6716;;;;
2019/09/12 00:24:41;;;;;;;9.3;5.1;;;;;;;15.66;81.97852;949.6488;;;;
2019/09/12 00:27:11;;;;;;;12.2;6.3;;;;;;;15.74;81.6582;949.7104;;;;
2019/09/12 00:29:39;;;;;;;10.7;6.2;;;;;;;15.83;81.5498;949.7324;;;;
2019/09/12 00:32:08;;;;;;;11.6;5.8;;;;;;;15.91;81.33398;949.7555;;;;
2019/09/12 00:34:42;;;;;;;7.7;4.6;;;;;;;15.96;81.19141;949.7671;;;;
2019/09/12 00:37:17;;;;;;;11.5;5.7;;;;;;;16.02;80.50781;949.7626;;;;
2019/09/12 00:39:47;;;;;;;6.1;4.7;;;;;;;15.97;80.14355;949.817;;;;
2019/09/12 00:42:21;;;;;;;11.2;5.2;;;;;;;15.94;80.54102;949.9269;;;;
2019/09/12 00:44:52;;;;;;;6.5;4.5;;;;;;;15.88;81.02637;949.9537;;;;
2019/09/12 00:47:22;;;;;;;5.2;3.7;;;;;;;15.85;81.26465;949.9606;;;;
2019/09/12 00:49:46;;;;;;;7.3;4;;;;;;;15.85;81.22949;949.959;;;;
2019/09/12 00:52:11;;;;;;;5.3;3.8;;;;;;;15.85;81.55273;949.9847;;;;
2019/09/12 00:54:43;;;;;;;7.1;3.9;;;;;;;15.89;81.07227;950.0823;;;;
2019/09/12 00:57:15;;;;;;;5.2;3.5;;;;;;;15.82;80.98047;950.015;;;;
2019/09/12 00:59:48;;;;;;;6.1;3.7;;;;;;;15.8;80.81543;950.0467;;;;
2019/09/12 01:02:13;;;;;;;4.9;3.7;;;;;;;15.79;80.83691;950.0242;;;;
2019/09/12 01:04:46;;;;;;;7.4;3.6;;;;;;;15.84;81.08887;950.0497;;;;
2019/09/12 01:07:14;;;;;;;4.3;3.9;;;;;;;15.63;81.30273;950.1296;;;;
2019/09/12 01:09:39;;;;;;;8.1;3.5;;;;;;;15.67;81.14941;950.0785;;;;
2019/09/12 01:12:12;;;;;;;5.2;3.5;;;;;;;15.74;81.28906;950.0936;;;;
2019/09/12 01:14:35;;;;;;;5.3;3.1;;;;;;;15.72;79.3457;950.1111;;;;
2019/09/12 01:17:20;;;;;;;6.4;3.6;;;;;;;15.72;80.73242;950.1183;;;;
2019/09/12 01:19:51;;;;;;;4.2;3.6;;;;;;;15.77;80.70605;950.0931;;;;
2019/09/12 01:22:42;;;;;;;5.1;3.8;;;;;;;15.83;80.69238;950.1332;;;;
2019/09/12 01:24:47;;;;;;;7.4;4;;;;;;;15.9;80.5791;950.1153;;;;
2019/09/12 01:27:13;;;;;;;5.4;3.9;;;;;;;15.87;80.69922;950.0966;;;;
2019/09/12 01:30:16;;;;;;;8.3;4.2;;;;;;;15.81;80.8418;950.1216;;;;
2019/09/12 01:32:43;;;;;;;5.9;3.4;;;;;;;15.82;80.55273;950.1267;;;;
2019/09/12 01:35:19;;;;;;;4.6;3.7;;;;;;;15.8;81.04785;950.1761;;;;
2019/09/12 01:37:30;;;;;;;6.6;3.8;;;;;;;15.78;81.14648;950.3228;;;;
2019/09/12 01:39:56;;;;;;;4.3;3.9;;;;;;;15.41;82.26758;950.3658;;;;
2019/09/12 01:42:28;;;;;;;6.5;3.5;;;;;;;15.53;82.02539;950.2983;;;;
2019/09/12 01:44:57;;;;;;;5.7;3.5;;;;;;;15.59;81.53906;950.3699;;;;
2019/09/12 01:47:28;;;;;;;6.4;3.3;;;;;;;15.68;81.24414;950.3854;;;;
2019/09/12 01:50:04;;;;;;;5.4;3.5;;;;;;;15.71;81.35254;950.38;;;;
2019/09/12 01:52:30;;;;;;;5.4;3.6;;;;;;;15.76;81.16699;950.4633;;;;
2019/09/12 01:55:00;;;;;;;6.2;3.8;;;;;;;15.73;80.99805;950.479;;;;
2019/09/12 01:57:25;;;;;;;5.8;3.7;;;;;;;15.73;80.95215;950.3794;;;;
2019/09/12 01:59:59;;;;;;;6.6;3.7;;;;;;;15.62;81.34766;950.4419;;;;
2019/09/12 02:02:30;;;;;;;5.5;3.6;;;;;;;15.42;82.2002;950.5063;;;;
2019/09/12 02:05:01;;;;;;;6.7;3.7;;;;;;;15.32;82.94336;950.5045;;;;
2019/09/12 02:07:27;;;;;;;5.4;3.6;;;;;;;15.32;82.79297;950.4692;;;;
2019/09/12 02:09:55;;;;;;;4.5;3.5;;;;;;;15.19;83.38086;950.5677;;;;
2019/09/12 02:12:26;;;;;;;5.9;3.8;;;;;;;15.05;83.92969;950.5413;;;;
2019/09/12 02:14:54;;;;;;;4.2;3.5;;;;;;;15.08;84.14258;950.5769;;;;
2019/09/12 02:17:23;;;;;;;5.9;4;;;;;;;15.2;83.89063;950.5815;;;;
2019/09/12 02:19:53;;;;;;;4.2;3.7;;;;;;;15.31;83.10254;950.5284;;;;
2019/09/12 02:22:27;;;;;;;6.6;4;;;;;;;15.36;83.04395;950.5291;;;;
2019/09/12 02:24:55;;;;;;;4.6;3.8;;;;;;;15.45;82.62109;950.5407;;;;
2019/09/12 02:27:23;;;;;;;6.8;3.4;;;;;;;15.53;82.08203;950.5432;;;;
2019/09/12 02:29:55;;;;;;;5.8;3.7;;;;;;;15.56;81.85742;950.5105;;;;
2019/09/12 02:32:29;;;;;;;5.7;4;;;;;;;15.62;82.09863;950.4868;;;;
2019/09/12 02:35:01;;;;;;;6.6;3.6;;;;;;;15.64;81.50293;950.4155;;;;
2019/09/12 02:37:34;;;;;;;7.4;3.5;;;;;;;15.65;81.28516;950.4116;;;;
2019/09/12 02:40:07;;;;;;;7.5;3.5;;;;;;;15.54;81.33398;950.3859;;;;
2019/09/12 02:42:39;;;;;;;5.5;3.5;;;;;;;15.36;81.92285;950.3894;;;;
2019/09/12 02:45:12;;;;;;;5.1;3.2;;;;;;;15.31;82.07422;950.4161;;;;
2019/09/12 02:47:44;;;;;;;4.9;3.3;;;;;;;15.42;81.56445;950.4047;;;;
2019/09/12 02:50:18;;;;;;;5.7;3.4;;;;;;;15.33;81.75586;950.4139;;;;
2019/09/12 02:52:46;;;;;;;5.4;3.6;;;;;;;15.24;82.37402;950.4322;;;;
2019/09/12 02:55:13;;;;;;;7.4;3.5;;;;;;;15.27;82.45996;950.3964;;;;
2019/09/12 02:57:38;;;;;;;5.6;3.2;;;;;;;15.2;82.12402;950.4196;;;;
2019/09/12 03:00:07;;;;;;;4.4;3.1;;;;;;;15.31;82.61621;950.437;;;;
2019/09/12 03:02:39;;;;;;;7.7;3.2;;;;;;;15.37;82.96484;950.4609;;;;
2019/09/12 03:05:04;;;;;;;4.2;3.1;;;;;;;15.46;82.73926;950.4975;;;;
2019/09/12 03:07:37;;;;;;;3.5;3.2;;;;;;;15.57;81.99805;950.428;;;;
2019/09/12 03:10:02;;;;;;;3.6;3.2;;;;;;;15.59;81.9082;950.402;;;;
2019/09/12 03:12:32;;;;;;;6.4;3.3;;;;;;;15.6;81.85254;950.455;;;;
2019/09/12 03:15:05;;;;;;;6;3.5;;;;;;;15.67;81.85449;950.4688;;;;
2019/09/12 03:17:29;;;;;;;8.3;3.4;;;;;;;15.74;81.58887;950.5153;;;;
2019/09/12 03:20:01;;;;;;;5.1;3.2;;;;;;;15.73;81.42578;950.4766;;;;
2019/09/12 03:22:23;;;;;;;7.4;3.8;;;;;;;15.75;81.32617;950.603;;;;
2019/09/12 03:24:54;;;;;;;4.6;3.4;;;;;;;15.74;81.10352;950.6012;;;;
2019/09/12 03:27:15;;;;;;;5.8;3.2;;;;;;;15.72;80.91699;950.5753;;;;
2019/09/12 03:29:44;;;;;;;4.8;3.5;;;;;;;15.69;81.44238;950.6336;;;;
2019/09/12 03:32:14;;;;;;;4.7;3.4;;;;;;;15.66;81.37793;950.5828;;;;
2019/09/12 03:34:45;;;;;;;5.9;3.9;;;;;;;15.65;81.45801;950.5818;;;;
2019/09/12 03:37:08;;;;;;;7.3;3.6;;;;;;;15.66;81.27344;950.6205;;;;
2019/09/12 03:39:38;;;;;;;6.1;3.8;;;;;;;15.67;81.63477;950.6663;;;;
2019/09/12 03:42:18;;;;;;;4.2;3.5;;;;;;;15.64;81.57227;950.6886;;;;
2019/09/12 03:44:44;;;;;;;7.7;3.7;;;;;;;15.64;81.67578;950.6959;;;;
2019/09/12 03:47:09;;;;;;;8.2;3.7;;;;;;;15.65;81.52734;950.728;;;;
2019/09/12 03:49:36;;;;;;;4.9;3.7;;;;;;;15.56;81.98242;950.7136;;;;
2019/09/12 03:52:08;;;;;;;5.6;3.8;;;;;;;15.53;82.1875;950.7897;;;;
2019/09/12 03:54:41;;;;;;;8.6;4.1;;;;;;;15.58;82.34375;950.7146;;;;
2019/09/12 03:57:08;;;;;;;9.3;3.6;;;;;;;15.58;82.10352;950.7981;;;;
2019/09/12 03:59:34;;;;;;;7.9;3.5;;;;;;;15.59;82.63672;950.7784;;;;
2019/09/12 04:02:48;;;;;;;7.1;3.9;;;;;;;15.6;82.16406;950.7932;;;;
2019/09/12 04:05:10;;;;;;;8.4;4;;;;;;;15.62;82.31934;950.8225;;;;
2019/09/12 04:07:44;;;;;;;5.7;3.3;;;;;;;15.65;82.2207;950.8348;;;;
2019/09/12 04:10:17;;;;;;;6.1;4;;;;;;;15.63;82.55273;950.8066;;;;
2019/09/12 04:12:42;;;;;;;10.1;4.6;;;;;;;15.54;82.12012;950.7495;;;;
2019/09/12 04:15:10;;;;;;;6.1;4;;;;;;;15.32;82.68945;950.8433;;;;
2019/09/12 04:18:13;;;;;;;6.1;4.2;;;;;;;15.33;83.32617;950.8353;;;;
2019/09/12 04:20:39;;;;;;;8.1;4.2;;;;;;;15.44;82.83984;950.93;;;;
2019/09/12 04:23:03;;;;;;;6.3;4.2;;;;;;;15.49;82.49023;950.9698;;;;
2019/09/12 04:25:31;;;;;;;8.7;4.3;;;;;;;15.55;82.2002;951.0026;;;;
2019/09/12 04:27:59;;;;;;;6.9;4.2;;;;;;;15.56;81.93652;950.9946;;;;
2019/09/12 04:30:31;;;;;;;6.6;4;;;;;;;15.54;81.94629;951.045;;;;
2019/09/12 04:33:01;;;;;;;5;3.7;;;;;;;15.52;81.9873;951.1018;;;;
2019/09/12 04:35:26;;;;;;;6.1;3.6;;;;;;;15.48;82.51172;951.1119;;;;
2019/09/12 04:37:53;;;;;;;5.8;3.9;;;;;;;15.22;83.20117;951.1261;;;;
2019/09/12 04:40:19;;;;;;;5.1;3.4;;;;;;;15.23;83.33984;951.2353;;;;
2019/09/12 04:42:45;;;;;;;11.7;3.8;;;;;;;15.24;83.33203;951.2796;;;;
2019/09/12 04:45:17;;;;;;;8.1;4.1;;;;;;;15.16;83.78906;951.2189;;;;
2019/09/12 04:47:51;;;;;;;8.6;4.2;;;;;;;15.15;83.83398;951.2397;;;;
2019/09/12 04:50:22;;;;;;;5.3;3.4;;;;;;;15.1;83.83496;951.2294;;;;
2019/09/12 04:52:52;;;;;;;4.8;3.3;;;;;;;14.87;84.38965;951.2341;;;;
2019/09/12 04:55:26;;;;;;;4.9;2.9;;;;;;;14.88;84.14063;951.2567;;;;
2019/09/12 04:57:52;;;;;;;7.7;3.8;;;;;;;14.99;84.73828;951.2687;;;;
2019/09/12 05:00:24;;;;;;;5.6;3.2;;;;;;;15.02;83.77441;951.356;;;;
2019/09/12 05:03:28;;;;;;;7.6;3.7;;;;;;;15.11;84.23047;951.3283;;;;
2019/09/12 05:05:51;;;;;;;7.4;4.2;;;;;;;15.18;82.73242;951.318;;;;
2019/09/12 05:08:20;;;;;;;9.2;5.2;;;;;;;15;82.99707;951.3794;;;;
2019/09/12 05:10:52;;;;;;;9;4.7;;;;;;;14.79;84.12207;951.4203;;;;
2019/09/12 05:13:16;;;;;;;8.5;4;;;;;;;14.79;84.87109;951.3401;;;;
2019/09/12 05:15:41;;;;;;;6.7;3.3;;;;;;;14.92;84.18066;951.3832;;;;
2019/09/12 05:18:08;;;;;;;7.2;3.9;;;;;;;14.86;84.28613;951.4537;;;;
2019/09/12 05:20:40;;;;;;;5.5;3.6;;;;;;;14.85;84.38965;951.4464;;;;
2019/09/12 05:23:05;;;;;;;7.9;3.7;;;;;;;15.04;84.19336;951.4261;;;;
2019/09/12 05:25:31;;;;;;;4.8;3.4;;;;;;;15.03;82.54199;951.4019;;;;
2019/09/12 05:27:55;;;;;;;5.8;3.7;;;;;;;15.21;82.94531;951.4587;;;;
2019/09/12 05:30:29;;;;;;;11.2;3.9;;;;;;;15.34;82.41504;951.4752;;;;
2019/09/12 05:33:00;;;;;;;6;3.5;;;;;;;15.4;82.25391;951.4959;;;;
2019/09/12 05:35:27;;;;;;;9.8;3.1;;;;;;;15.44;82.15723;951.4485;;;;
2019/09/12 05:37:54;;;;;;;6.5;2.8;;;;;;;15.48;81.86328;951.5188;;;;
2019/09/12 05:40:22;;;;;;;5.2;3;;;;;;;15.44;82.07813;951.585;;;;
2019/09/12 05:42:53;;;;;;;7.7;3.1;;;;;;;15.47;81.98926;951.5524;;;;
2019/09/12 05:45:21;;;;;;;7.6;3.3;;;;;;;15.53;81.08789;951.5644;;;;
2019/09/12 05:47:53;;;;;;;8.5;2.9;;;;;;;15.41;80.44336;951.5828;;;;
2019/09/12 05:50:27;;;;;;;7.3;3.2;;;;;;;15.44;80.85352;951.5939;;;;
2019/09/12 05:52:48;;;;;;;7.4;3.1;;;;;;;15.33;80.78613;951.6299;;;;
2019/09/12 05:55:13;;;;;;;7.6;3.1;;;;;;;15.42;81.33398;951.6671;;;;
2019/09/12 05:57:43;;;;;;;7.1;3.1;;;;;;;15.61;80.97852;951.6829;;;;
2019/09/12 06:00:09;;;;;;;6.9;2.7;;;;;;;15.75;79.87109;951.7112;;;;
2019/09/12 06:02:38;;;;;;;7.8;2.9;;;;;;;15.64;79.54883;951.7614;;;;
2019/09/12 06:05:15;;;;;;;6.1;2.7;;;;;;;15.53;79.80664;951.6888;;;;
2019/09/12 06:07:48;;;;;;;4.1;2.5;;;;;;;15.5;79.70898;951.6845;;;;
2019/09/12 06:10:20;;;;;;;6.7;3.3;;;;;;;15.49;80.34277;951.6248;;;;
2019/09/12 06:12:44;;;;;;;9.9;3.3;;;;;;;15.57;81.44336;951.6379;;;;
2019/09/12 06:15:11;;;;;;;6;3.4;;;;;;;15.8;80.41211;951.6066;;;;
2019/09/12 06:17:41;;;;;;;4.9;3;;;;;;;15.35;81.12402;951.6253;;;;
2019/09/12 06:20:11;;;;;;;9.2;3.2;;;;;;;15.29;81.10254;951.5676;;;;
2019/09/12 06:22:43;;;;;;;5.8;3.6;;;;;;;15.41;81.83984;951.6052;;;;
2019/09/12 06:25:27;;;;;;;7.6;3.1;;;;;;;15.45;80.78613;951.6237;;;;
2019/09/12 06:27:58;;;;;;;6.9;3;;;;;;;15.18;81.02344;951.4961;;;;
2019/09/12 06:30:31;;;;;;;8;3.1;;;;;;;15.35;81.02051;951.5354;;;;
2019/09/12 06:32:56;;;;;;;5.4;2.7;;;;;;;15.59;80.35059;951.4964;;;;
2019/09/12 06:35:24;;;;;;;5.9;2.4;;;;;;;15.94;78.1582;951.5658;;;;
2019/09/12 06:37:48;;;;;;;6.4;3.1;;;;;;;15.9;78.44238;951.5541;;;;
2019/09/12 06:40:13;;;;;;;8.4;3;;;;;;;16.12;78.18066;951.5477;;;;
2019/09/12 06:42:40;;;;;;;7.9;3.7;;;;;;;16.1;77.68945;951.5724;;;;
2019/09/12 06:45:06;;;;;;;9;3.4;;;;;;;16.2;77.54688;951.5605;;;;
2019/09/12 06:47:32;;;;;;;6.9;2.4;;;;;;;16.34;75.76563;951.5195;;;;
2019/09/12 06:49:58;;;;;;;5.9;2.7;;;;;;;16.52;75.9707;951.5655;;;;
2019/09/12 06:52:30;;;;;;;5.1;2.5;;;;;;;16.83;74.69141;951.567;;;;
2019/09/12 06:55:12;;;;;;;9.7;2.5;;;;;;;16.66;74.60645;951.5499;;;;
2019/09/12 06:57:33;;;;;;;9.4;2.5;;;;;;;16.68;75.52246;951.5069;;;;
2019/09/12 06:59:57;;;;;;;4.3;2.4;;;;;;;16.73;75.41602;951.5387;;;;
2019/09/12 07:02:28;;;;;;;19.8;3.3;;;;;;;16.93;75.54297;951.537;;;;
2019/09/12 07:04:53;;;;;;;12;2.9;;;;;;;17.09;74.79395;951.5616;;;;
2019/09/12 07:07:25;;;;;;;6.3;2.4;;;;;;;17.29;73.96973;951.5558;;;;
2019/09/12 07:09:48;;;;;;;5;2.6;;;;;;;17.36;73.03125;951.5931;;;;
2019/09/12 07:15:05;;;;;;;5.7;2.4;;;;;;;17.53;73.11816;951.5305;;;;
2019/09/12 07:17:28;;;;;;;5;2.1;;;;;;;18.04;71.43652;951.5671;;;;
2019/09/12 07:20:00;;;;;;;6.3;2.5;;;;;;;17.98;70.16211;951.5772;;;;
2019/09/12 07:22:33;;;;;;;6.9;2.5;;;;;;;17.97;70.21875;951.5956;;;;
2019/09/12 07:25:07;;;;;;;6.2;2.5;;;;;;;17.88;69.25195;951.5817;;;;
2019/09/12 07:27:37;;;;;;;5.7;2.4;;;;;;;17.6;69.8457;951.5228;;;;
2019/09/12 07:30:19;;;;;;;6.1;2.5;;;;;;;17.57;72.24219;951.5967;;;;
2019/09/12 07:32:47;;;;;;;4.6;2.6;;;;;;;17.43;71.32617;951.6252;;;;
2019/09/12 07:35:18;;;;;;;4.3;2;;;;;;;17.27;71.83203;951.6675;;;;
2019/09/12 07:37:46;;;;;;;4.2;2.2;;;;;;;17.46;71.63281;951.7276;;;;
2019/09/12 07:40:10;;;;;;;5.8;2.3;;;;;;;17.78;73.83203;951.7166;;;;
2019/09/12 07:42:44;;;;;;;5.6;2.3;;;;;;;17.99;68.79297;951.7505;;;;
2019/09/12 07:45:08;;;;;;;6.4;2.3;;;;;;;17.75;69.60156;951.8131;;;;
2019/09/12 07:48:19;;;;;;;6.3;2.4;;;;;;;17.86;69.44629;951.9194;;;;
2019/09/12 07:50:44;;;;;;;5.6;2.5;;;;;;;18.02;70.12109;951.9766;;;;
2019/09/12 07:53:18;;;;;;;3.9;2.3;;;;;;;17.96;69.93848;951.9536;;;;
2019/09/12 07:55:50;;;;;;;4.2;2.5;;;;;;;18.15;69.04883;951.9777;;;;
2019/09/12 07:58:23;;;;;;;3.9;2.4;;;;;;;18.33;66.61426;952.0114;;;;
2019/09/12 08:00:56;;;;;;;3.8;2.5;;;;;;;18.58;69.02344;951.9861;;;;
2019/09/12 08:03:27;;;;;;;5.3;2.3;;;;;;;18.84;67.2959;951.9604;;;;
2019/09/12 08:05:48;;;;;;;4.7;2.2;;;;;;;19.12;65.37109;951.9402;;;;
2019/09/12 08:08:15;;;;;;;6.4;2.2;;;;;;;19.3;64.25586;951.9095;;;;
2019/09/12 08:10:47;;;;;;;2.7;1.8;;;;;;;19.35;63.2373;952.0063;;;;
2019/09/12 08:13:20;;;;;;;3.7;1.8;;;;;;;19.9;62.9082;951.9636;;;;
2019/09/12 08:15:53;;;;;;;2.9;2;;;;;;;20.42;60.24902;951.9575;;;;
2019/09/12 08:18:17;;;;;;;4.2;1.8;;;;;;;20.53;60.7666;951.9846;;;;
2019/09/12 08:20:47;;;;;;;3.8;1.9;;;;;;;20.62;59.77441;951.9345;;;;
2019/09/12 08:23:14;;;;;;;6;1.8;;;;;;;21.09;56.84375;951.942;;;;
2019/09/12 08:25:44;;;;;;;3.2;1.9;;;;;;;21.2;58.37988;951.9288;;;;
2019/09/12 08:28:18;;;;;;;8.1;2.3;;;;;;;21.17;59.54395;951.9697;;;;
2019/09/12 08:30:50;;;;;;;2.9;1.8;;;;;;;21.31;57.16406;951.9818;;;;
2019/09/12 08:33:21;;;;;;;3.4;2;;;;;;;21.36;57.7793;952.0421;;;;
2019/09/12 08:35:44;;;;;;;3.7;1.8;;;;;;;21.78;57.17871;952.0623;;;;
2019/09/12 08:38:18;;;;;;;3.5;1.8;;;;;;;22.91;53.2373;952.1245;;;;
2019/09/12 08:40:43;;;;;;;4.7;1.7;;;;;;;24.04;47.99023;952.1692;;;;
2019/09/12 08:43:14;;;;;;;3.4;1.6;;;;;;;25.38;47.65137;952.0867;;;;
2019/09/12 08:45:45;;;;;;;3.3;1.6;;;;;;;26.19;44.16602;952.1979;;;;
2019/09/12 08:48:16;;;;;;;5.2;1.9;;;;;;;25.38;46.42285;952.2254;;;;
2019/09/12 08:50:44;;;;;;;2.7;1.6;;;;;;;24.57;46.9043;952.2776;;;;
2019/09/12 08:53:12;;;;;;;3.6;1.8;;;;;;;24.61;49.33789;952.2864;;;;
2019/09/12 08:55:35;;;;;;;5.2;1.8;;;;;;;24.19;51.39941;952.2711;;;;
2019/09/12 08:58:00;;;;;;;2.5;1.7;;;;;;;24.11;48.49414;952.293;;;;
2019/09/12 09:00:32;;;;;;;2.7;1.6;;;;;;;23.93;49.63965;952.285;;;;
2019/09/12 09:03:03;;;;;;;3.9;1.8;;;;;;;23.49;52.05957;952.3681;;;;
2019/09/12 09:05:30;;;;;;;4.4;1.9;;;;;;;23.47;51.70508;952.4604;;;;
2019/09/12 09:08:01;;;;;;;4.5;2;;;;;;;23.31;51.5332;952.415;;;;
2019/09/12 09:10:28;;;;;;;4.4;1.7;;;;;;;23.6;53.30762;952.4291;;;;
2019/09/12 09:12:57;;;;;;;4.2;2.1;;;;;;;24.22;50.75488;952.343;;;;
2019/09/12 09:15:25;;;;;;;3.2;1.8;;;;;;;25.05;48.99707;952.3589;;;;
2019/09/12 09:18:15;;;;;;;6;1.9;;;;;;;24.83;44.28906;952.3144;;;;
2019/09/12 09:20:47;;;;;;;3.8;2;;;;;;;24.79;44.91211;952.3062;;;;
2019/09/12 09:23:17;;;;;;;3.1;1.9;;;;;;;24.69;44.83105;952.3337;;;;
2019/09/12 09:25:52;;;;;;;3;1.8;;;;;;;24.99;43.24316;952.3279;;;;
2019/09/12 09:28:24;;;;;;;2.9;1.8;;;;;;;24.95;45.73047;952.3085;;;;
2019/09/12 09:30:58;;;;;;;4.4;2;;;;;;;25.42;45.89551;952.323;;;;
2019/09/12 09:33:27;;;;;;;2.4;1.6;;;;;;;25.55;42.09277;952.2864;;;;
2019/09/12 09:35:53;;;;;;;3.9;1.7;;;;;;;25.61;43.1748;952.2733;;;;
2019/09/12 09:38:18;;;;;;;3;1.4;;;;;;;25.73;41.29492;952.3075;;;;
2019/09/12 09:40:49;;;;;;;11.5;2.4;;;;;;;25.62;43.32813;952.3008;;;;
2019/09/12 09:43:18;;;;;;;4.4;2.1;;;;;;;25.08;43.19336;952.381;;;;
2019/09/12 09:45:42;;;;;;;4.4;2;;;;;;;25.16;45.36133;952.4313;;;;
2019/09/12 09:48:09;;;;;;;3.1;1.9;;;;;;;25.11;45.73438;952.3811;;;;
2019/09/12 09:50:37;;;;;;;5.6;1.9;;;;;;;25.25;45.59473;952.4056;;;;
2019/09/12 09:53:00;;;;;;;6.2;1.8;;;;;;;25.48;45.72559;952.4089;;;;
2019/09/12 09:55:25;;;;;;;2.9;1.7;;;;;;;25.58;43.43066;952.3379;;;;
2019/09/12 09:57:56;;;;;;;3.6;1.9;;;;;;;25.39;46.34082;952.3784;;;;
2019/09/12 10:00:21;;;;;;;4;1.8;;;;;;;25.37;43.77637;952.3235;;;;
2019/09/12 10:02:48;;;;;;;3.3;1.7;;;;;;;25.38;43.83789;952.3591;;;;
2019/09/12 10:05:16;;;;;;;2.8;1.7;;;;;;;25.51;45.06641;952.2728;;;;
2019/09/12 10:07:55;;;;;;;2.6;1.7;;;;;;;25.48;44.55566;952.3086;;;;
2019/09/12 10:10:22;;;;;;;4.8;1.5;;;;;;;25.42;42.97852;952.2927;;;;
2019/09/12 10:12:49;;;;;;;4.1;1.7;;;;;;;25.23;44.43652;952.2519;;;;
2019/09/12 10:15:15;;;;;;;3.6;1.8;;;;;;;25.28;47.12109;952.2581;;;;
2019/09/12 10:17:40;;;;;;;3;1.9;;;;;;;24.92;45.12598;952.2138;;;;
2019/09/12 10:20:09;;;;;;;4;1.8;;;;;;;25.09;44.58594;952.1395;;;;
2019/09/12 10:22:34;;;;;;;2.8;1.9;;;;;;;24.93;46.24609;952.1981;;;;
2019/09/12 10:25:00;;;;;;;4.3;2;;;;;;;24.79;45.98438;952.2206;;;;
2019/09/12 10:27:31;;;;;;;5.4;2;;;;;;;24.53;46.21777;952.1912;;;;
2019/09/12 10:30:00;;;;;;;2.6;1.7;;;;;;;24.68;46.04297;952.2502;;;;
2019/09/12 10:32:27;;;;;;;3.3;1.9;;;;;;;24.85;47.72461;952.1895;;;;
2019/09/12 10:34:57;;;;;;;6.4;1.8;;;;;;;24.87;47.25488;952.1996;;;;
2019/09/12 10:37:23;;;;;;;5.2;1.8;;;;;;;24.85;47.33594;952.1959;;;;
2019/09/12 10:39:51;;;;;;;4.6;2;;;;;;;25.09;46.9248;952.1678;;;;
2019/09/12 10:42:18;;;;;;;4.4;1.8;;;;;;;25;46.08887;952.1837;;;;
2019/09/12 10:44:54;;;;;;;5.8;2;;;;;;;24.81;44.56055;952.159;;;;
2019/09/12 10:47:21;;;;;;;3.8;1.9;;;;;;;24.73;47.57031;952.1072;;;;
2019/09/12 10:49:53;;;;;;;4.6;1.9;;;;;;;25.06;47.00391;952.132;;;;
2019/09/12 10:52:25;;;;;;;5.4;1.9;;;;;;;25.32;45.70898;952.1746;;;;
2019/09/12 10:54:50;;;;;;;4.1;1.7;;;;;;;25.34;46.37207;952.1725;;;;
2019/09/12 10:57:16;;;;;;;4;1.6;;;;;;;25.5;45.08887;952.1361;;;;
2019/09/12 10:59:46;;;;;;;3;1.6;;;;;;;25.69;43.58398;952.1224;;;;
2019/09/12 11:02:11;;;;;;;2.9;1.7;;;;;;;26.08;42.17773;952.1295;;;;
2019/09/12 11:04:39;;;;;;;3.5;1.9;;;;;;;26.62;42.80957;952.1404;;;;
2019/09/12 11:07:04;;;;;;;2.5;1.7;;;;;;;26.95;43.19629;952.1036;;;;
2019/09/12 11:09:37;;;;;;;4.6;2;;;;;;;27.71;41.29883;952.1133;;;;
2019/09/12 11:12:02;;;;;;;2.2;1.7;;;;;;;27.92;41.95996;952.0798;;;;
2019/09/12 11:14:34;;;;;;;2.3;1.6;;;;;;;28.52;38.18555;951.9956;;;;
2019/09/12 11:17:05;;;;;;;4.1;1.9;;;;;;;29.13;38.16602;952.0051;;;;
2019/09/12 11:19:38;;;;;;;3.4;1.6;;;;;;;29.49;36.45801;951.9276;;;;
2019/09/12 11:22:03;;;;;;;3.7;1.6;;;;;;;30.4;34.53613;951.9197;;;;
2019/09/12 11:24:37;;;;;;;2.5;1.4;;;;;;;31.26;33.93262;951.9604;;;;
2019/09/12 11:27:06;;;;;;;2.9;1.6;;;;;;;31.78;31.5752;951.9514;;;;
2019/09/12 11:29:28;;;;;;;2.8;1.3;;;;;;;32.95;31.45215;951.99;;;;
2019/09/12 11:31:52;;;;;;;3;1.5;;;;;;;33.65;29.59961;951.9785;;;;
2019/09/12 11:34:23;;;;;;;3.5;1.6;;;;;;;34.71;27.84961;951.9313;;;;
2019/09/12 11:36:49;;;;;;;2.9;1.4;;;;;;;36;27.00879;951.895;;;;
2019/09/12 11:39:20;;;;;;;2.4;1.1;;;;;;;37.16;24.65234;951.887;;;;
2019/09/12 11:41:46;;;;;;;2.1;1.3;;;;;;;37.82;24.00781;951.8757;;;;
2019/09/12 11:44:16;;;;;;;1.7;1.2;;;;;;;38.25;23.38672;951.8717;;;;
2019/09/12 11:46:42;;;;;;;2.7;1.4;;;;;;;38.64;22.62891;951.8206;;;;
2019/09/12 11:49:12;;;;;;;2.6;1.4;;;;;;;38.92;22.20508;951.8187;;;;
2019/09/12 11:51:36;;;;;;;3;1.4;;;;;;;38.69;22.63086;951.7902;;;;
2019/09/12 11:54:06;;;;;;;4.2;1.5;;;;;;;39.38;22.39746;951.8226;;;;
2019/09/12 11:56:30;;;;;;;2.3;1.4;;;;;;;39.84;21.24902;951.8144;;;;
2019/09/12 11:58:57;;;;;;;3.7;1.7;;;;;;;39.48;22.34082;951.8259;;;;
2019/09/12 12:01:24;;;;;;;2.3;1.3;;;;;;;39.15;21.94727;951.842;;;;
2019/09/12 12:03:50;;;;;;;2.3;1.4;;;;;;;39.35;21.55566;951.7996;;;;
2019/09/12 12:06:32;;;;;;;2;1.4;;;;;;;38.71;23.21582;951.7868;;;;
2019/09/12 12:08:58;;;;;;;2.1;1.4;;;;;;;38.61;23.75879;951.7512;;;;
2019/09/12 12:11:31;;;;;;;10.8;2.9;;;;;;;39.11;22.68848;951.7567;;;;
2019/09/12 12:14:03;;;;;;;5.2;1.7;;;;;;;39.4;22.89746;951.7608;;;;
2019/09/12 12:16:36;;;;;;;2.3;1.4;;;;;;;39.83;21.7002;951.6779;;;;
2019/09/12 12:19:07;;;;;;;4.1;1.6;;;;;;;39.7;22.54688;951.6508;;;;
2019/09/12 12:21:32;;;;;;;2.6;1.4;;;;;;;40.08;21.37012;951.6428;;;;
2019/09/12 12:24:12;;;;;;;4.5;1.7;;;;;;;40.24;21.57227;951.6475;;;;
2019/09/12 12:26:27;;;;;;;5.9;1.6;;;;;;;40.9;20.6377;951.6309;;;;
2019/09/12 12:29:12;;;;;;;2.6;1.5;;;;;;;41.43;19.90332;951.6423;;;;
2019/09/12 12:32:17;;;;;;;4.4;1.6;;;;;;;40.83;20.50098;951.6382;;;;
2019/09/12 12:34:45;;;;;;;3.3;1.8;;;;;;;40.9;20.14941;951.5958;;;;
2019/09/12 12:37:09;;;;;;;4.4;1.9;;;;;;;40.14;21.34766;951.5256;;;;
2019/09/12 12:39:46;;;;;;;10.6;2.2;;;;;;;39.48;22;951.515;;;;
2019/09/12 12:42:17;;;;;;;4.8;1.9;;;;;;;39.81;21.62598;951.5211;;;;
2019/09/12 12:44:42;;;;;;;5.6;2.4;;;;;;;39.95;21.90039;951.5402;;;;
2019/09/12 12:47:17;;;;;;;8.9;3.1;;;;;;;39.51;22.69531;951.4875;;;;
2019/09/12 12:49:35;;;;;;;4.1;1.5;;;;;;;39.96;22.14453;951.5591;;;;
2019/09/12 12:52:16;;;;;;;5.2;2;;;;;;;40.02;21.63574;951.5188;;;;
2019/09/12 12:54:42;;;;;;;5.4;1.9;;;;;;;40.53;21.45117;951.5394;;;;
2019/09/12 12:57:18;;;;;;;4.5;1.5;;;;;;;40.92;21.54297;951.5366;;;;
2019/09/12 12:59:54;;;;;;;6;1.8;;;;;;;40.89;21.56641;951.5244;;;;
2019/09/12 13:02:22;;;;;;;4.3;1.8;;;;;;;40.96;20.33496;951.5712;;;;
2019/09/12 13:04:54;;;;;;;5.2;2;;;;;;;40.36;21.44434;951.5319;;;;
2019/09/12 13:07:25;;;;;;;5;2;;;;;;;40.62;22.03027;951.5303;;;;
2019/09/12 13:09:55;;;;;;;10.1;3.3;;;;;;;40.81;21.85547;951.4846;;;;
2019/09/12 13:12:21;;;;;;;5.6;2;;;;;;;41.11;20.43945;951.4373;;;;
2019/09/12 13:14:49;;;;;;;3;1.4;;;;;;;40.58;21.35645;951.4744;;;;
2019/09/12 13:17:12;;;;;;;3.6;1.3;;;;;;;39.27;21.83203;951.4411;;;;
2019/09/12 13:19:43;;;;;;;2.7;1.4;;;;;;;39.36;22.37207;951.3984;;;;
2019/09/12 13:22:11;;;;;;;2.8;1.5;;;;;;;39.57;23.125;951.3775;;;;
2019/09/12 13:24:35;;;;;;;2.5;1.4;;;;;;;39.83;22.62598;951.3657;;;;
2019/09/12 13:27:02;;;;;;;3.9;1.5;;;;;;;39.95;22.38867;951.3386;;;;
2019/09/12 13:29:29;;;;;;;4.2;1.7;;;;;;;40.15;22.44727;951.305;;;;
2019/09/12 13:32:01;;;;;;;2.9;1.3;;;;;;;39.6;22.79785;951.2932;;;;
2019/09/12 13:34:31;;;;;;;2.5;1.4;;;;;;;39.3;23.16016;951.2873;;;;
2019/09/12 13:36:57;;;;;;;5.3;1.6;;;;;;;39.33;22.8584;951.2665;;;;
2019/09/12 13:39:31;;;;;;;2;1.2;;;;;;;37.82;23.81445;951.1506;;;;
2019/09/12 13:42:10;;;;;;;3.6;1.5;;;;;;;36.36;25.34766;951.1376;;;;
2019/09/12 13:44:39;;;;;;;2.5;1.5;;;;;;;35.74;26.6543;951.1253;;;;
2019/09/12 13:47:10;;;;;;;3.1;1.4;;;;;;;35.51;26.85938;951.041;;;;
2019/09/12 13:49:42;;;;;;;2.8;1.5;;;;;;;34.55;28.21289;951.0392;;;;
2019/09/12 13:52:17;;;;;;;4.4;1.7;;;;;;;34.04;29.49414;951.0128;;;;
2019/09/12 13:54:42;;;;;;;2;1.3;;;;;;;33.06;30.61914;950.9322;;;;
2019/09/12 13:57:11;;;;;;;5.2;1.7;;;;;;;32.58;32.1709;950.8969;;;;
2019/09/12 13:59:39;;;;;;;4.3;1.9;;;;;;;31.88;33.24707;950.9368;;;;
2019/09/12 14:02:06;;;;;;;3.3;1.8;;;;;;;30.99;34.93945;950.9329;;;;
2019/09/12 14:04:38;;;;;;;2.7;1.6;;;;;;;30.06;36.44336;950.872;;;;
2019/09/12 14:07:04;;;;;;;2.6;1.8;;;;;;;29.53;38.2959;950.8524;;;;
2019/09/12 14:09:48;;;;;;;2.9;1.9;;;;;;;29.16;39.00195;950.8331;;;;
2019/09/12 14:12:18;;;;;;;4;2;;;;;;;28.33;41.60547;950.8773;;;;
2019/09/12 14:15:15;;;;;;;5;1.9;;;;;;;28.23;40.96582;950.8506;;;;
2019/09/12 14:17:55;;;;;;;2.9;1.9;;;;;;;27.98;40.94336;950.8801;;;;
2019/09/12 14:22:53;;;;;;;6.1;2;;;;;;;27.73;43.25977;950.8747;;;;
2019/09/12 14:25:23;;;;;;;5.5;1.9;;;;;;;27.52;43.12109;950.8869;;;;
2019/09/12 14:27:55;;;;;;;3.9;2.1;;;;;;;27.18;43.09961;950.9106;;;;
2019/09/12 14:30:22;;;;;;;5.9;2;;;;;;;27.05;43.9043;950.8171;;;;
2019/09/12 14:32:54;;;;;;;3.6;1.8;;;;;;;26.91;43.67871;950.9144;;;;
2019/09/12 14:35:25;;;;;;;4.4;2;;;;;;;26.71;43.91895;950.8407;;;;
2019/09/12 14:37:59;;;;;;;4.1;1.9;;;;;;;26.63;45.20313;950.8137;;;;
2019/09/12 14:40:31;;;;;;;4.2;1.9;;;;;;;26.51;44.39746;950.8649;;;;
2019/09/12 14:42:55;;;;;;;4.9;1.9;;;;;;;26.37;45.5791;950.834;;;;
2019/09/12 14:45:24;;;;;;;4.1;1.8;;;;;;;26.35;45.99121;950.9048;;;;
2019/09/12 14:47:50;;;;;;;4.8;1.9;;;;;;;26.28;45.61719;950.8488;;;;